Terminal Aerodrome Forecast
Issued by NWS

Home | Current Version | Previous Version | Text Only | Print | Product List | Glossary On
Versions: 1 2 3 4 5 6 7 8 9 10 11 12 13
820
FTUS42 KMLB 241136
TAFISM
TAF
KISM 241136Z 2412/2512 26003KT P6SM FEW025 BKN045
     FM241700 27015G23KT P6SM SCT040
     FM250000 26011KT P6SM SCT250=

USA.gov is the U.S. government's official web portal to all federal, state and local government web resources and services.